Map

Track Data

SID SEASON NUMBER BASIN SUBBASIN NAME ISO_TIME NATURE LAT LON WMO_WIND WMO_PRES WMO_AGENCY TRACK_TYPE DIST2LAND LANDFALL IFLAG USA_AGENCY USA_ATCF_ID USA_LAT USA_LON USA_RECORD USA_STATUS USA_WIND USA_PRES USA_SSHS USA_R34_NE USA_R34_SE USA_R34_SW USA_R34_NW USA_R50_NE USA_R50_SE USA_R50_SW USA_R50_NW USA_R64_NE USA_R64_SE USA_R64_SW USA_R64_NW USA_POCI USA_ROCI USA_RMW USA_EYE TOKYO_LAT TOKYO_LON TOKYO_GRADE TOKYO_WIND TOKYO_PRES TOKYO_R50_DIR TOKYO_R50_LONG TOKYO_R50_SHORT TOKYO_R30_DIR TOKYO_R30_LONG TOKYO_R30_SHORT TOKYO_LAND CMA_LAT CMA_LON CMA_CAT CMA_WIND CMA_PRES HKO_LAT HKO_LON HKO_CAT HKO_WIND HKO_PRES NEWDELHI_LAT NEWDELHI_LON NEWDELHI_GRADE NEWDELHI_WIND NEWDELHI_PRES NEWDELHI_CI NEWDELHI_DP NEWDELHI_POCI REUNION_LAT REUNION_LON REUNION_TYPE REUNION_WIND REUNION_PRES REUNION_TNUM REUNION_CI REUNION_RMW REUNION_R34_NE REUNION_R34_SE REUNION_R34_SW REUNION_R34_NW REUNION_R50_NE REUNION_R50_SE REUNION_R50_SW REUNION_R50_NW REUNION_R64_NE REUNION_R64_SE REUNION_R64_SW REUNION_R64_NW BOM_LAT BOM_LON BOM_TYPE BOM_WIND BOM_PRES BOM_TNUM BOM_CI BOM_RMW BOM_R34_NE BOM_R34_SE BOM_R34_SW BOM_R34_NW BOM_R50_NE BOM_R50_SE BOM_R50_SW BOM_R50_NW BOM_R64_NE BOM_R64_SE BOM_R64_SW BOM_R64_NW BOM_ROCI BOM_POCI BOM_EYE BOM_POS_METHOD BOM_PRES_METHOD NADI_LAT NADI_LON NADI_CAT NADI_WIND NADI_PRES WELLINGTON_LAT WELLINGTON_LON WELLINGTON_WIND WELLINGTON_PRES DS824_LAT DS824_LON DS824_STAGE DS824_WIND DS824_PRES TD9636_LAT TD9636_LON TD9636_STAGE TD9636_WIND TD9636_PRES TD9635_LAT TD9635_LON TD9635_WIND TD9635_PRES TD9635_ROCI NEUMANN_LAT NEUMANN_LON NEUMANN_CLASS NEUMANN_WIND NEUMANN_PRES MLC_LAT MLC_LON MLC_CLASS MLC_WIND MLC_PRES USA_GUST BOM_GUST BOM_GUST_PER REUNION_GUST REUNION_GUST_PER USA_SEAHGT USA_SEARAD_NE USA_SEARAD_SE USA_SEARAD_SW USA_SEARAD_NW STORM_SPEED STORM_DIR
1863335S17427 1864 30 SI MM NOT_NAMED 1863-11-30 18:00:00 NR -16.8000 66.8000 main 1026 1002 __________O___ -1 -16.8000 66.8000 7 5 237
1863335S17427 1864 30 SI MM NOT_NAMED 1863-11-30 21:00:00 NR -16.9392 66.5752 main 1002 973 __________P___ -1 -16.9392 66.5752 7 5 237
1863335S17427 1864 30 SI MM NOT_NAMED 1863-12-01 00:00:00 NR -17.0827 66.3502 main 973 940 __________P___ -1 -17.0827 66.3502 7 5 236
1863335S17427 1864 30 SI MM NOT_NAMED 1863-12-01 03:00:00 NR -17.2348 66.1251 main 940 911 __________P___ -1 -17.2348 66.1251 7 5 234
1863335S17427 1864 30 SI MM NOT_NAMED 1863-12-01 06:00:00 NR -17.4000 65.9000 main 911 883 __________O___ -1 -17.4000 65.9000 7 6 231
1863335S17427 1864 30 SI MM NOT_NAMED 1863-12-01 09:00:00 NR -17.5815 65.6749 main 883 856 __________P___ -1 -17.5815 65.6749 7 6 229
1863335S17427 1864 30 SI MM NOT_NAMED 1863-12-01 12:00:00 NR -17.7774 65.4498 main 846 818 __________P___ -1 -17.7774 65.4498 7 6 227
1863335S17427 1864 30 SI MM NOT_NAMED 1863-12-01 15:00:00 NR -17.9846 65.2249 main 818 791 __________P___ -1 -17.9846 65.2249 7 6 225
1863335S17427 1864 30 SI MM NOT_NAMED 1863-12-01 18:00:00 NR -18.2000 65.0000 main 791 764 __________O___ -1 -18.2000 65.0000 7 6 224
1863335S17427 1864 30 SI MM NOT_NAMED 1863-12-01 21:00:00 NR -18.4341 64.7629 main 764 724 __________P___ -1 -18.4341 64.7629 7 7 223
1863335S17427 1864 30 SI MM NOT_NAMED 1863-12-02 00:00:00 NR -18.6725 64.5277 main 724 698 __________P___ -1 -18.6725 64.5277 7 6 223
1863335S17427 1864 30 SI MM NOT_NAMED 1863-12-02 03:00:00 NR -18.8997 64.3036 main 698 672 __________P___ -1 -18.8997 64.3036 7 6 224
1863335S17427 1864 30 SI MM NOT_NAMED 1863-12-02 06:00:00 NR -19.1000 64.1000 main 672 650 __________O___ -1 -19.1000 64.1000 7 5 225
1863335S17427 1864 30 SI MM NOT_NAMED 1863-12-02 09:00:00 NR -19.2455 63.9321 main 650 635 __________P___ -1 -19.2455 63.9321 7 4 228
1863335S17427 1864 30 SI MM NOT_NAMED 1863-12-02 12:00:00 NR -19.3648 63.7845 main 635 623 __________P___ -1 -19.3648 63.7845 7 4 229
1863335S17427 1864 30 SI MM NOT_NAMED 1863-12-02 15:00:00 NR -19.4767 63.6446 main 612 600 __________P___ -1 -19.4767 63.6446 7 4 229
1863335S17427 1864 30 SI MM NOT_NAMED 1863-12-02 18:00:00 NR -19.6000 63.5000 main 600 588 __________O___ -1 -19.6000 63.5000 7 4 226
1863335S17427 1864 30 SI MM NOT_NAMED 1863-12-02 21:00:00 NR -19.7483 63.3441 main 578 565 __________P___ -1 -19.7483 63.3441 7 4 224
1863335S17427 1864 30 SI MM NOT_NAMED 1863-12-03 00:00:00 NR -19.9123 63.1796 main 565 543 __________P___ -1 -19.9123 63.1796 7 5 223
1863335S17427 1864 30 SI MM NOT_NAMED 1863-12-03 03:00:00 NR -20.0952 63.0003 main 543 521 __________P___ -1 -20.0952 63.0003 7 5 223
1863335S17427 1864 30 SI MM NOT_NAMED 1863-12-03 06:00:00 NR -20.3000 62.8000 main 521 500 __________O___ -1 -20.3000 62.8000 7 6 223
1863335S17427 1864 30 SI MM NOT_NAMED 1863-12-03 09:00:00 NR -20.5244 62.5716 main 500 471 __________P___ -1 -20.5244 62.5716 7 7 224
1863335S17427 1864 30 SI MM NOT_NAMED 1863-12-03 12:00:00 NR -20.7700 62.3225 main 471 452 __________P___ -1 -20.7700 62.3225 7 7 223
1863335S17427 1864 30 SI MM NOT_NAMED 1863-12-03 15:00:00 NR -21.0306 62.0621 main 454 430 __________P___ -1 -21.0306 62.0621 7 7 223
1863335S17427 1864 30 SI MM NOT_NAMED 1863-12-03 18:00:00 NR -21.3000 61.8000 main 430 416 __________O___ -1 -21.3000 61.8000 7 7 222
1863335S17427 1864 30 SI MM NOT_NAMED 1863-12-03 21:00:00 NR -21.5729 61.5438 main 410 399 __________P___ -1 -21.5729 61.5438 7 7 221
1863335S17427 1864 30 SI MM NOT_NAMED 1863-12-04 00:00:00 NR -21.8477 61.2931 main 399 390 __________P___ -1 -21.8477 61.2931 7 7 220
1863335S17427 1864 30 SI MM NOT_NAMED 1863-12-04 03:00:00 NR -22.1236 61.0459 main 385 381 __________P___ -1 -22.1236 61.0459 7 7 220
1863335S17427 1864 30 SI MM NOT_NAMED 1863-12-04 06:00:00 NR -22.4000 60.8000 main 384 __________O___ -1 -22.4000 60.8000 7 7 220

About IBTrACS Database

This database is a web-friendly format of International Best Track Archive for Climate Stewardship (IBTrACS), a global best track data archive curated by NOAA dating back to 1842.

Updated: 2021-11-26